Time;durP1;ratioP1;P1;durP2;ratioP2;P2;SDS_P1;SDS_P2;PMS_P1;PMS_P2;Temp;Humidity;BMP_temperature;BMP_pressure;BME280_temperature;BME280_humidity;BME280_pressure;Samples;Min_cycle;Max_cycle;Signal;HPM_P1;HPM_P2
2022/09/14 00:01:09;;;;;;;8.15;2.20;;;15.40;99.90;;;;;;5137855;27;20182;-71
2022/09/14 00:03:36;;;;;;;6.32;2.55;;;15.40;99.90;;;;;;5156565;27;20039;-71
2022/09/14 00:06:06;;;;;;;4.75;1.90;;;15.40;99.90;;;;;;5155873;27;20157;-72
2022/09/14 00:08:32;;;;;;;10.07;2.13;;;15.30;99.90;;;;;;5156622;27;20042;-71
2022/09/14 00:10:57;;;;;;;5.07;2.17;;;15.40;99.90;;;;;;5138772;27;20058;-71
2022/09/14 00:13:23;;;;;;;6.75;2.22;;;15.40;99.90;;;;;;5168012;27;20053;-71
2022/09/14 00:15:50;;;;;;;9.82;2.20;;;15.40;99.90;;;;;;5164372;27;20126;-71
2022/09/14 00:18:16;;;;;;;5.13;1.85;;;15.40;99.90;;;;;;5143815;27;20039;-71
2022/09/14 00:20:42;;;;;;;7.40;2.22;;;15.40;99.90;;;;;;5148903;27;20045;-71
2022/09/14 00:23:08;;;;;;;7.93;1.90;;;15.40;99.90;;;;;;5177041;27;20375;-72
2022/09/14 00:25:34;;;;;;;10.05;2.40;;;15.80;99.90;;;;;;5176815;27;20390;-71
2022/09/14 00:28:00;;;;;;;7.50;2.00;;;15.50;99.90;;;;;;5175521;27;20037;-71
2022/09/14 00:30:26;;;;;;;6.80;2.00;;;15.40;99.90;;;;;;5172660;27;20054;-71
2022/09/14 00:32:52;;;;;;;5.30;2.10;;;15.40;99.90;;;;;;5157647;27;20495;-71
2022/09/14 00:35:18;;;;;;;6.63;2.10;;;15.40;99.90;;;;;;5155781;27;20055;-71
2022/09/14 00:37:44;;;;;;;7.95;2.00;;;15.30;99.90;;;;;;5155916;27;20026;-71
2022/09/14 00:40:11;;;;;;;9.52;2.25;;;15.40;99.90;;;;;;5171850;27;20087;-72
2022/09/14 00:42:37;;;;;;;9.45;2.00;;;15.40;99.90;;;;;;5155611;27;20493;-72
2022/09/14 00:45:18;;;;;;;8.18;2.53;;;16.30;99.90;;;;;;5157096;27;20130;-71
2022/09/14 00:47:46;;;;;;;6.30;2.03;;;15.40;99.90;;;;;;5137240;27;20085;-71
2022/09/14 00:50:12;;;;;;;6.35;2.10;;;15.40;99.90;;;;;;5164993;27;20045;-71
2022/09/14 00:52:42;;;;;;;9.45;2.15;;;15.40;99.90;;;;;;5157211;27;20038;-71
2022/09/14 00:55:16;;;;;;;7.32;2.35;;;15.40;99.90;;;;;;5174684;27;20046;-70
2022/09/14 00:57:48;;;;;;;8.93;2.70;;;15.40;99.90;;;;;;5176075;27;20068;-71
2022/09/14 01:00:17;;;;;;;5.47;2.08;;;15.30;99.90;;;;;;5174333;27;20470;-71
2022/09/14 01:02:43;;;;;;;7.57;2.35;;;15.50;99.90;;;;;;5175892;27;20065;-72
2022/09/14 01:05:10;;;;;;;6.78;2.13;;;15.30;99.90;;;;;;5175892;27;20034;-71
2022/09/14 01:07:58;;;;;;;8.20;2.30;;;15.70;99.90;;;;;;5149250;27;20092;-71
2022/09/14 01:10:50;;;;;;;7.60;2.33;;;15.30;99.90;;;;;;5161497;27;20042;-71
2022/09/14 01:13:34;;;;;;;8.98;2.47;;;15.30;99.90;;;;;;5127619;27;20115;-70
2022/09/14 01:16:14;;;;;;;7.13;2.20;;;15.30;99.90;;;;;;5135078;27;20046;-71
2022/09/14 01:18:44;;;;;;;9.63;2.30;;;15.30;99.90;;;;;;5115771;27;20043;-71
2022/09/14 01:21:23;;;;;;;11.32;2.50;;;15.30;99.90;;;;;;5146373;27;20605;-71
2022/09/14 01:23:59;;;;;;;11.35;2.50;;;15.30;99.90;;;;;;5172055;27;20046;-71
2022/09/14 01:26:39;;;;;;;;;;;15.30;99.90;;;;;;5156960;27;20174;-71
2022/09/14 01:29:15;;;;;;;7.05;2.20;;;15.30;99.90;;;;;;5175890;27;19923;-71
2022/09/14 01:31:50;;;;;;;8.57;2.40;;;15.30;99.90;;;;;;5150435;27;20046;-70
2022/09/14 01:34:35;;;;;;;7.40;2.33;;;15.30;99.90;;;;;;5154861;27;20505;-71
2022/09/14 01:37:25;;;;;;;7.20;2.80;;;15.30;99.90;;;;;;5154603;27;20065;-71
2022/09/14 01:40:00;;;;;;;7.63;2.50;;;15.30;99.90;;;;;;5123295;27;20365;-71
2022/09/14 01:42:28;;;;;;;8.80;2.22;;;15.30;99.90;;;;;;5154594;27;20074;-70
2022/09/14 01:44:58;;;;;;;8.55;2.33;;;15.70;99.90;;;;;;5155929;27;20471;-71
2022/09/14 01:47:34;;;;;;;4.57;2.20;;;15.90;99.90;;;;;;5153232;27;20117;-71
2022/09/14 01:50:24;;;;;;;7.75;2.42;;;15.30;99.90;;;;;;5171724;27;20185;-71
2022/09/14 01:53:19;;;;;;;8.68;2.60;;;15.30;99.90;;;;;;5174465;27;20034;-71
2022/09/14 01:55:50;;;;;;;8.25;2.70;;;15.30;99.90;;;;;;5154794;27;20038;-70
2022/09/14 01:58:39;;;;;;;7.85;2.30;;;15.30;99.90;;;;;;5175732;27;20071;-71
2022/09/14 02:01:08;;;;;;;8.45;2.30;;;15.30;99.90;;;;;;5174126;27;20094;-71
2022/09/14 02:03:45;;;;;;;6.85;2.50;;;15.30;99.90;;;;;;5169664;27;20031;-71
2022/09/14 02:06:46;;;;;;;7.28;2.50;;;15.20;99.90;;;;;;5135540;27;20100;-70
2022/09/14 02:09:21;;;;;;;6.78;2.75;;;15.30;99.90;;;;;;5099540;27;20403;-71
2022/09/14 02:11:47;;;;;;;;;;;15.60;99.90;;;;;;5152472;27;20130;-71
2022/09/14 02:14:13;;;;;;;6.32;2.72;;;15.20;99.90;;;;;;5154317;27;19966;-70
2022/09/14 02:16:42;;;;;;;9.02;2.75;;;15.50;99.90;;;;;;5165651;27;20046;-70
2022/09/14 02:19:08;;;;;;;6.00;2.63;;;15.20;99.90;;;;;;5157373;27;20110;-71
2022/09/14 02:21:34;;;;;;;5.47;2.50;;;15.30;99.90;;;;;;5174511;27;20041;-71
2022/09/14 02:24:01;;;;;;;8.88;2.53;;;15.20;99.90;;;;;;5175365;27;20043;-70
2022/09/14 02:26:28;;;;;;;6.65;2.70;;;15.30;99.90;;;;;;5172706;27;20088;-70
2022/09/14 02:28:55;;;;;;;7.20;2.80;;;15.30;99.90;;;;;;5160777;27;20031;-71
2022/09/14 02:31:39;;;;;;;5.90;2.38;;;15.30;99.90;;;;;;5144074;27;20225;-70
2022/09/14 02:34:20;;;;;;;8.65;3.20;;;15.30;99.90;;;;;;5145370;27;20061;-70
2022/09/14 02:37:00;;;;;;;7.03;2.80;;;15.30;99.90;;;;;;5153193;27;20074;-71
2022/09/14 02:39:50;;;;;;;6.18;2.70;;;15.20;99.90;;;;;;5097895;27;20043;-70
2022/09/14 02:42:22;;;;;;;7.00;2.75;;;15.20;99.90;;;;;;5133281;28;20099;-70
2022/09/14 02:45:12;;;;;;;8.32;2.95;;;15.20;99.90;;;;;;5119514;27;20070;-70
2022/09/14 02:47:54;;;;;;;7.38;3.00;;;15.20;99.90;;;;;;5135601;27;20046;-70
2022/09/14 02:50:49;;;;;;;13.18;3.50;;;15.20;99.90;;;;;;5158714;27;20043;-71
2022/09/14 02:53:23;;;;;;;8.30;3.22;;;15.20;99.90;;;;;;5174353;27;20042;-70
2022/09/14 02:55:54;;;;;;;6.93;2.90;;;15.80;99.90;;;;;;5153400;27;20197;-70
2022/09/14 02:58:20;;;;;;;8.50;2.90;;;15.20;99.90;;;;;;5174531;27;20424;-71
2022/09/14 03:00:49;;;;;;;7.68;2.90;;;15.20;99.90;;;;;;5173892;27;20424;-71
2022/09/14 03:03:17;;;;;;;9.40;3.45;;;15.10;99.90;;;;;;5174287;27;20039;-71
2022/09/14 03:05:43;;;;;;;11.98;3.30;;;15.10;99.90;;;;;;5174062;27;20068;-70
2022/09/14 03:08:09;;;;;;;9.18;3.30;;;15.10;99.90;;;;;;5153224;27;20103;-71
2022/09/14 03:10:35;;;;;;;9.65;2.97;;;15.10;99.90;;;;;;5155421;27;20039;-71
2022/09/14 03:13:01;;;;;;;10.23;2.97;;;15.30;99.90;;;;;;5164961;27;20038;-70
2022/09/14 03:15:27;;;;;;;5.82;2.80;;;15.10;99.90;;;;;;5153439;27;20081;-71
2022/09/14 03:17:53;;;;;;;10.10;3.17;;;15.60;99.90;;;;;;5155170;27;20050;-71
2022/09/14 03:20:26;;;;;;;8.52;3.00;;;15.10;99.90;;;;;;5155756;27;20521;-71
2022/09/14 03:22:52;;;;;;;7.90;3.13;;;15.10;99.90;;;;;;5166619;27;20076;-71
2022/09/14 03:25:18;;;;;;;7.00;2.88;;;15.10;99.90;;;;;;5153188;27;20434;-71
2022/09/14 03:27:51;;;;;;;7.45;3.00;;;15.10;99.90;;;;;;5167483;27;20153;-71
2022/09/14 03:30:17;;;;;;;9.05;3.38;;;15.10;99.90;;;;;;5173825;27;20038;-71
2022/09/14 03:32:44;;;;;;;7.43;3.10;;;15.10;99.90;;;;;;5173483;27;20056;-71
2022/09/14 03:35:10;;;;;;;8.23;3.10;;;15.10;99.90;;;;;;5168062;27;20423;-71
2022/09/14 03:37:38;;;;;;;7.35;3.25;;;15.10;99.90;;;;;;5173574;27;20157;-71
2022/09/14 03:40:05;;;;;;;9.85;3.72;;;15.10;99.90;;;;;;5154520;27;20482;-70
2022/09/14 03:42:30;;;;;;;7.78;3.20;;;15.10;99.90;;;;;;5158655;27;20046;-71
2022/09/14 03:44:57;;;;;;;10.07;3.40;;;15.10;99.90;;;;;;5157591;27;20372;-70
2022/09/14 03:47:23;;;;;;;8.57;3.55;;;15.10;99.90;;;;;;5176224;27;20095;-70
2022/09/14 03:49:49;;;;;;;6.18;3.47;;;15.20;99.90;;;;;;5174409;27;20086;-70
2022/09/14 03:52:15;;;;;;;11.50;3.88;;;15.10;99.90;;;;;;5160465;27;20046;-70
2022/09/14 03:54:40;;;;;;;7.72;3.70;;;15.60;99.90;;;;;;5177530;27;20038;-70
2022/09/14 03:57:06;;;;;;;9.05;3.78;;;15.30;99.90;;;;;;5129513;27;20035;-70
2022/09/14 03:59:32;;;;;;;8.00;3.72;;;15.20;99.90;;;;;;5138593;27;20042;-71
2022/09/14 04:01:59;;;;;;;8.38;3.60;;;15.20;99.90;;;;;;5156083;27;20104;-71
2022/09/14 04:04:25;;;;;;;10.57;3.75;;;15.10;99.90;;;;;;5156809;27;20082;-70
2022/09/14 04:06:50;;;;;;;10.70;3.50;;;16.00;99.90;;;;;;5157476;27;20140;-71
2022/09/14 04:09:17;;;;;;;7.20;3.50;;;15.10;99.90;;;;;;5158093;27;20046;-70
2022/09/14 04:11:43;;;;;;;10.63;3.70;;;15.10;99.90;;;;;;5157140;27;20525;-71
2022/09/14 04:14:08;;;;;;;11.15;3.80;;;15.10;99.90;;;;;;5154333;27;20038;-71
2022/09/14 04:16:34;;;;;;;7.10;3.25;;;15.10;99.90;;;;;;5163682;27;20497;-71
2022/09/14 04:19:00;;;;;;;7.80;3.72;;;15.30;99.90;;;;;;5137610;27;20387;-71
2022/09/14 04:21:25;;;;;;;11.18;4.03;;;15.10;99.90;;;;;;5150151;27;20078;-71
2022/09/14 04:23:53;;;;;;;7.47;3.78;;;15.10;99.90;;;;;;5140744;27;20035;-71
2022/09/14 04:26:20;;;;;;;8.13;3.60;;;15.10;99.90;;;;;;5164072;27;20046;-71
2022/09/14 04:28:45;;;;;;;9.15;3.60;;;15.10;99.90;;;;;;5146290;27;20115;-71
2022/09/14 04:31:12;;;;;;;7.93;3.78;;;15.10;99.90;;;;;;5150031;27;20117;-70
2022/09/14 04:33:44;;;;;;;8.13;3.80;;;15.10;99.90;;;;;;5151172;27;20054;-70
2022/09/14 04:36:12;;;;;;;5.78;3.60;;;15.10;99.90;;;;;;5176530;27;20045;-71
2022/09/14 04:38:38;;;;;;;8.88;3.53;;;15.20;99.90;;;;;;5176349;27;20073;-71
2022/09/14 04:41:08;;;;;;;7.53;3.40;;;15.20;99.90;;;;;;5174567;27;20094;-71
2022/09/14 04:43:34;;;;;;;8.60;3.42;;;15.20;99.90;;;;;;5175643;27;20118;-71
2022/09/14 04:46:01;;;;;;;8.77;4.10;;;15.10;99.90;;;;;;5174076;27;20541;-71
2022/09/14 04:48:32;;;;;;;7.22;3.45;;;15.20;99.90;;;;;;5156104;27;20035;-71
2022/09/14 04:51:03;;;;;;;8.95;3.80;;;15.10;99.90;;;;;;5151985;27;20053;-71
2022/09/14 04:53:31;;;;;;;8.10;3.78;;;15.10;99.90;;;;;;5154605;27;20684;-71
2022/09/14 04:56:06;;;;;;;10.25;4.10;;;15.10;99.90;;;;;;5154977;27;20031;-71
2022/09/14 04:58:32;;;;;;;11.85;3.58;;;15.10;99.90;;;;;;5156260;27;20379;-71
2022/09/14 05:01:26;;;;;;;8.18;3.55;;;15.20;99.90;;;;;;5137958;27;20043;-71
2022/09/14 05:03:53;;;;;;;8.68;3.47;;;15.20;99.90;;;;;;5151549;27;20059;-71
2022/09/14 05:06:24;;;;;;;8.93;3.25;;;16.10;99.90;;;;;;5154432;27;20368;-70
2022/09/14 05:08:51;;;;;;;8.02;3.72;;;15.20;99.90;;;;;;5136761;27;20099;-71
2022/09/14 05:11:20;;;;;;;10.50;3.53;;;15.30;99.90;;;;;;5167234;27;20486;-71
2022/09/14 05:13:46;;;;;;;7.63;3.40;;;15.20;99.90;;;;;;5159099;27;20054;-70
2022/09/14 05:16:20;;;;;;;6.60;3.58;;;15.50;99.90;;;;;;5154933;27;20046;-71
2022/09/14 05:18:47;;;;;;;6.90;3.03;;;15.20;99.90;;;;;;5138505;27;20047;-71
2022/09/14 05:21:15;;;;;;;5.75;3.20;;;15.20;99.90;;;;;;5150027;27;20042;-71
2022/09/14 05:23:41;;;;;;;7.32;3.10;;;15.20;99.90;;;;;;5137646;27;20109;-71
2022/09/14 05:26:07;;;;;;;7.97;3.30;;;15.20;99.90;;;;;;5161351;27;20078;-71
2022/09/14 05:28:34;;;;;;;8.85;3.20;;;15.80;99.90;;;;;;5173351;27;20088;-71
2022/09/14 05:31:07;;;;;;;11.68;3.30;;;15.30;99.90;;;;;;5175213;27;20045;-71
2022/09/14 05:33:33;;;;;;;7.63;3.03;;;15.30;99.90;;;;;;5175276;27;20502;-71
2022/09/14 05:36:05;;;;;;;7.70;3.10;;;15.70;99.90;;;;;;5173563;27;20431;-71
2022/09/14 05:38:33;;;;;;;7.47;3.17;;;15.30;99.90;;;;;;5158013;27;20039;-71
2022/09/14 05:40:58;;;;;;;5.55;3.05;;;15.30;99.90;;;;;;5161823;27;20376;-71
2022/09/14 05:43:24;;;;;;;7.15;3.47;;;15.30;99.90;;;;;;5158637;27;20037;-70
2022/09/14 05:45:50;;;;;;;10.35;3.10;;;15.30;99.90;;;;;;5156728;27;20469;-70
2022/09/14 05:48:16;;;;;;;8.10;3.38;;;15.50;99.90;;;;;;5175640;27;20073;-71
2022/09/14 05:50:42;;;;;;;7.60;3.38;;;15.30;99.90;;;;;;5174802;27;20056;-71
2022/09/14 05:53:08;;;;;;;8.68;3.35;;;15.40;99.90;;;;;;5174702;27;20375;-71
2022/09/14 05:55:34;;;;;;;6.40;2.80;;;15.40;99.90;;;;;;5156453;27;20539;-71
2022/09/14 05:57:59;;;;;;;9.30;3.50;;;15.40;99.90;;;;;;5156619;27;20538;-71
2022/09/14 06:00:26;;;;;;;8.75;3.38;;;15.40;99.90;;;;;;5174035;27;20046;-71
2022/09/14 06:02:53;;;;;;;10.13;3.22;;;15.40;99.90;;;;;;5154362;27;20532;-71
2022/09/14 06:05:20;;;;;;;6.97;3.35;;;15.40;99.90;;;;;;5173067;27;20053;-71
2022/09/14 06:07:50;;;;;;;8.48;3.40;;;15.40;99.90;;;;;;5139270;27;20388;-71
2022/09/14 06:10:16;;;;;;;8.45;3.45;;;15.60;99.90;;;;;;5141980;27;20045;-71
2022/09/14 06:12:42;;;;;;;8.55;3.60;;;15.40;99.90;;;;;;5153707;27;20046;-71
2022/09/14 06:15:09;;;;;;;7.65;2.97;;;15.40;99.90;;;;;;5153763;27;20045;-71
2022/09/14 06:17:35;;;;;;;8.70;3.25;;;15.50;99.90;;;;;;5153925;27;20042;-71
2022/09/14 06:20:01;;;;;;;11.63;3.45;;;15.50;99.90;;;;;;5135186;27;20046;-71
2022/09/14 06:22:27;;;;;;;6.07;2.95;;;15.50;99.90;;;;;;5153041;27;20060;-71
2022/09/14 06:24:53;;;;;;;7.70;3.47;;;15.50;99.90;;;;;;5155258;27;20490;-71
2022/09/14 06:27:18;;;;;;;8.90;3.17;;;15.60;99.90;;;;;;5153596;27;20507;-71
2022/09/14 06:29:44;;;;;;;9.48;3.10;;;15.60;99.90;;;;;;5157329;27;20090;-71
2022/09/14 06:32:09;;;;;;;7.22;3.45;;;15.70;99.90;;;;;;5173986;27;20046;-71
2022/09/14 06:34:35;;;;;;;7.35;3.33;;;15.70;99.90;;;;;;5174515;27;20168;-71
2022/09/14 06:37:01;;;;;;;11.68;3.67;;;15.60;99.90;;;;;;5155350;27;20079;-71
2022/09/14 06:39:27;;;;;;;6.65;2.95;;;15.70;99.90;;;;;;5174844;27;20128;-71
2022/09/14 06:41:52;;;;;;;7.43;3.20;;;15.70;99.90;;;;;;5145460;27;20471;-71
2022/09/14 06:44:18;;;;;;;13.00;3.33;;;15.70;99.90;;;;;;5156146;27;20469;-71
2022/09/14 06:46:44;;;;;;;9.63;3.40;;;15.80;99.90;;;;;;5152847;27;20053;-71
2022/09/14 06:49:13;;;;;;;10.80;2.88;;;15.70;99.90;;;;;;5154610;27;20049;-71
2022/09/14 06:51:41;;;;;;;7.80;2.85;;;15.90;99.90;;;;;;5172233;27;20046;-71
2022/09/14 06:54:09;;;;;;;6.47;3.03;;;16.20;99.90;;;;;;5166608;27;20098;-71
2022/09/14 06:56:36;;;;;;;9.48;2.50;;;15.90;99.90;;;;;;5134520;27;20110;-70
2022/09/14 06:59:07;;;;;;;8.95;3.53;;;16.00;99.90;;;;;;5131667;27;20043;-71
2022/09/14 07:01:33;;;;;;;5.20;2.60;;;16.00;99.90;;;;;;5151530;27;20182;-71
2022/09/14 07:04:00;;;;;;;8.38;2.88;;;16.10;99.90;;;;;;5151375;27;20221;-71
2022/09/14 07:06:28;;;;;;;8.73;3.40;;;16.10;99.90;;;;;;5153129;27;20493;-70
2022/09/14 07:08:54;;;;;;;9.13;3.20;;;16.20;99.90;;;;;;5153517;27;20035;-70
2022/09/14 07:11:24;;;;;;;9.10;2.97;;;17.00;99.90;;;;;;5152904;27;20038;-73
2022/09/14 07:13:50;;;;;;;8.30;2.95;;;16.60;99.90;;;;;;5153683;27;20077;-71
2022/09/14 07:16:15;;;;;;;8.57;2.90;;;16.30;99.90;;;;;;5155683;27;20034;-71
2022/09/14 07:18:41;;;;;;;7.82;2.92;;;16.30;99.90;;;;;;5157625;27;20059;-71
2022/09/14 07:21:13;;;;;;;12.48;3.00;;;16.50;99.90;;;;;;5155259;27;20046;-71
2022/09/14 07:23:41;;;;;;;7.28;2.80;;;16.40;99.90;;;;;;5157555;27;20135;-71
2022/09/14 07:26:15;;;;;;;7.03;2.40;;;16.40;99.90;;;;;;5174565;27;20038;-71
2022/09/14 07:28:42;;;;;;;10.20;2.50;;;16.50;99.90;;;;;;5159636;27;20407;-71
2022/09/14 07:31:29;;;;;;;6.53;1.80;;;16.50;99.90;;;;;;5146485;27;20448;-71
2022/09/14 07:33:57;;;;;;;7.47;1.90;;;16.60;99.90;;;;;;5172549;27;20050;-72
2022/09/14 07:36:24;;;;;;;9.48;1.88;;;16.60;99.90;;;;;;5152649;27;20026;-71
2022/09/14 07:38:50;;;;;;;9.85;2.42;;;16.70;99.90;;;;;;5143256;27;20051;-71
2022/09/14 07:41:17;;;;;;;9.15;2.20;;;16.70;99.90;;;;;;5156673;27;20097;-72
2022/09/14 07:43:42;;;;;;;10.75;2.33;;;16.80;99.90;;;;;;5154751;27;20503;-71
2022/09/14 07:46:08;;;;;;;6.25;1.83;;;16.80;99.90;;;;;;5139987;27;20039;-71
2022/09/14 07:48:34;;;;;;;10.40;2.30;;;16.80;99.90;;;;;;5156388;27;20078;-71
2022/09/14 07:51:05;;;;;;;11.77;2.00;;;16.90;99.90;;;;;;5156715;27;20121;-71
2022/09/14 07:53:31;;;;;;;6.95;1.85;;;16.90;99.90;;;;;;5156328;27;20087;-71
2022/09/14 07:56:00;;;;;;;11.80;1.95;;;17.00;99.90;;;;;;5146605;27;20085;-71
2022/09/14 07:58:27;;;;;;;7.10;1.98;;;17.10;99.90;;;;;;5141354;27;20043;-71
2022/09/14 08:01:01;;;;;;;7.35;1.80;;;17.20;99.90;;;;;;5155760;27;20061;-72
2022/09/14 08:03:28;;;;;;;6.47;1.73;;;17.50;99.90;;;;;;5173029;27;20182;-75
2022/09/14 08:06:00;;;;;;;7.63;1.80;;;17.40;99.90;;;;;;5140477;27;20081;-72
2022/09/14 08:08:34;;;;;;;8.45;2.20;;;17.80;99.90;;;;;;5158264;27;20046;-71
2022/09/14 08:11:11;;;;;;;8.48;1.80;;;17.70;99.90;;;;;;5176532;27;20452;-71
2022/09/14 08:13:39;;;;;;;6.55;1.80;;;17.80;99.90;;;;;;5176919;27;20113;-71
2022/09/14 08:16:05;;;;;;;6.03;1.73;;;17.80;99.90;;;;;;5176863;27;20046;-71
2022/09/14 08:18:33;;;;;;;6.65;1.90;;;17.90;99.90;;;;;;5147475;27;20375;-71
2022/09/14 08:21:05;;;;;;;9.98;1.85;;;18.00;99.90;;;;;;5134602;27;20039;-71
2022/09/14 08:23:32;;;;;;;10.30;2.17;;;18.20;99.90;;;;;;5116877;27;20100;-71
2022/09/14 08:26:28;;;;;;;8.95;1.98;;;18.30;99.90;;;;;;5114936;27;20043;-71
2022/09/14 08:28:54;;;;;;;6.63;1.77;;;18.30;99.90;;;;;;5112643;27;20482;-70
2022/09/14 08:31:23;;;;;;;6.60;1.70;;;18.50;99.90;;;;;;5134827;27;20050;-70
2022/09/14 08:34:00;;;;;;;7.43;1.65;;;18.60;99.90;;;;;;5149533;27;20062;-70
2022/09/14 08:36:29;;;;;;;10.77;2.20;;;18.70;99.90;;;;;;5134780;27;20441;-71
2022/09/14 08:38:55;;;;;;;6.57;1.60;;;18.90;99.90;;;;;;5133673;27;20054;-70
2022/09/14 08:41:49;;;;;;;7.93;1.70;;;19.20;99.90;;;;;;5134386;27;20384;-71
2022/09/14 08:44:40;;;;;;;6.60;1.70;;;19.40;99.90;;;;;;5123831;27;20055;-71
2022/09/14 08:47:20;;;;;;;7.82;1.70;;;19.60;99.90;;;;;;5116296;27;20545;-70
2022/09/14 08:50:16;;;;;;;10.48;2.10;;;19.70;99.90;;;;;;5150999;27;20043;-70
2022/09/14 08:52:47;;;;;;;7.55;1.73;;;19.90;99.90;;;;;;5134839;27;20039;-70
2022/09/14 08:55:39;;;;;;;7.75;1.70;;;20.00;99.90;;;;;;5134759;27;20043;-71
2022/09/14 08:58:34;;;;;;;8.65;1.75;;;20.20;99.90;;;;;;5170560;27;20062;-71
2022/09/14 09:01:29;;;;;;;6.07;1.52;;;20.20;99.90;;;;;;5154355;27;20042;-71
2022/09/14 09:03:54;;;;;;;5.78;1.50;;;20.30;99.90;;;;;;5130549;27;20053;-71
2022/09/14 09:06:44;;;;;;;7.20;1.60;;;20.70;99.90;;;;;;5136092;27;20043;-70
2022/09/14 09:09:18;;;;;;;6.97;1.33;;;21.10;99.90;;;;;;5155270;27;20087;-70
2022/09/14 09:11:48;;;;;;;3.50;1.33;;;21.50;99.90;;;;;;5134348;27;20034;-70
2022/09/14 09:14:20;;;;;;;5.03;1.40;;;21.70;99.90;;;;;;5154329;27;20082;-70
2022/09/14 09:16:50;;;;;;;9.00;1.70;;;21.80;99.90;;;;;;5145096;27;20070;-70
2022/09/14 09:19:22;;;;;;;10.90;1.63;;;21.60;99.90;;;;;;5150725;27;20058;-70
2022/09/14 09:21:48;;;;;;;6.78;1.60;;;21.50;99.90;;;;;;5115238;27;20429;-70
2022/09/14 09:24:24;;;;;;;9.18;1.70;;;21.30;99.90;;;;;;5134239;27;20118;-70
2022/09/14 09:26:50;;;;;;;9.85;1.50;;;21.20;99.90;;;;;;5133334;27;20043;-70
2022/09/14 09:29:15;;;;;;;6.75;1.55;;;21.10;99.90;;;;;;5097726;27;20071;-70
2022/09/14 09:31:48;;;;;;;4.68;1.40;;;21.00;99.90;;;;;;5131488;27;20086;-70
2022/09/14 09:34:19;;;;;;;5.78;1.27;;;21.00;99.90;;;;;;5132571;27;20050;-70
2022/09/14 09:36:47;;;;;;;15.45;1.85;;;20.90;99.90;;;;;;5133309;27;20050;-70
2022/09/14 09:39:14;;;;;;;10.00;1.92;;;20.80;99.90;;;;;;5149524;27;20043;-71
2022/09/14 09:41:45;;;;;;;8.73;1.70;;;20.80;99.90;;;;;;5132888;27;20039;-70
2022/09/14 09:44:10;;;;;;;7.10;1.50;;;20.70;99.90;;;;;;5134069;27;20164;-70
2022/09/14 09:46:38;;;;;;;9.38;1.67;;;20.70;99.90;;;;;;5133371;27;20126;-71
2022/09/14 09:49:17;;;;;;;7.93;1.55;;;20.60;99.90;;;;;;5115274;27;20043;-71
2022/09/14 09:51:43;;;;;;;6.35;1.30;;;20.60;99.90;;;;;;5133194;27;20054;-70
2022/09/14 09:54:12;;;;;;;8.52;1.77;;;20.50;99.90;;;;;;5133395;27;20035;-71
2022/09/14 09:56:49;;;;;;;4.85;1.55;;;20.40;99.90;;;;;;5133005;27;20601;-71
2022/09/14 09:59:30;;;;;;;8.95;1.67;;;20.30;99.90;;;;;;5133623;27;20042;-71
2022/09/14 10:02:25;;;;;;;6.43;1.52;;;20.30;99.90;;;;;;5114402;27;20046;-71
2022/09/14 10:05:07;;;;;;;8.20;1.60;;;20.30;99.90;;;;;;5133134;27;20047;-70
2022/09/14 10:07:39;;;;;;;7.65;1.73;;;20.20;99.90;;;;;;5132665;27;20137;-70
2022/09/14 10:10:10;;;;;;;4.95;1.40;;;20.30;99.90;;;;;;5132027;27;20055;-70
2022/09/14 10:12:44;;;;;;;6.80;1.58;;;20.30;99.90;;;;;;5132844;27;20360;-70
2022/09/14 10:15:27;;;;;;;6.97;1.60;;;20.40;99.90;;;;;;5114827;27;20093;-70
2022/09/14 10:18:00;;;;;;;6.20;1.58;;;20.60;99.90;;;;;;5132449;27;20043;-70
2022/09/14 10:20:26;;;;;;;6.90;1.40;;;20.70;99.90;;;;;;5113176;27;20088;-70
2022/09/14 10:22:52;;;;;;;8.05;1.67;;;20.80;99.90;;;;;;5114528;28;20053;-70
2022/09/14 10:25:18;;;;;;;5.43;1.30;;;20.90;99.90;;;;;;5132616;27;20078;-70
2022/09/14 10:27:58;;;;;;;8.43;1.70;;;20.90;99.90;;;;;;5114424;27;20087;-70
2022/09/14 10:30:37;;;;;;;8.20;1.63;;;21.00;99.90;;;;;;5113738;28;20107;-70
2022/09/14 10:33:14;;;;;;;9.52;1.83;;;21.00;99.90;;;;;;5132704;27;20059;-71
2022/09/14 10:35:40;;;;;;;6.47;1.52;;;21.10;99.90;;;;;;5158504;27;20451;-75
2022/09/14 10:38:33;;;;;;;4.60;1.52;;;21.10;99.90;;;;;;5153785;27;20046;-74
2022/09/14 10:41:26;;;;;;;5.63;1.50;;;21.20;99.90;;;;;;5153557;27;20126;-75
2022/09/14 10:43:57;;;;;;;6.50;1.88;;;21.30;99.90;;;;;;5153189;27;20041;-76
2022/09/14 10:46:29;;;;;;;5.15;1.27;;;21.40;99.90;;;;;;5157373;27;20398;-75
2022/09/14 10:49:13;;;;;;;6.38;1.83;;;21.50;99.90;;;;;;5133077;27;20045;-75
2022/09/14 10:52:08;;;;;;;5.15;1.30;;;21.50;99.90;;;;;;5118189;27;20078;-74
2022/09/14 10:54:39;;;;;;;7.18;1.73;;;21.60;99.90;;;;;;5118445;27;20047;-75
2022/09/14 10:57:24;;;;;;;7.53;1.60;;;21.60;99.90;;;;;;5126000;27;20054;-75
2022/09/14 10:59:54;;;;;;;11.35;2.05;;;21.70;99.90;;;;;;5139972;27;20051;-75
2022/09/14 11:02:30;;;;;;;10.70;1.75;;;21.60;99.90;;;;;;5137406;27;20046;-80
2022/09/14 11:05:14;;;;;;;5.63;1.40;;;21.60;99.90;;;;;;5116824;27;20074;-86
2022/09/14 11:08:08;;;;;;;8.20;1.40;;;21.60;99.90;;;;;;5134954;27;20047;-87
2022/09/14 11:10:50;;;;;;;8.55;1.88;;;21.70;99.90;;;;;;5116819;27;20085;-85
2022/09/14 11:13:31;;;;;;;5.70;1.52;;;21.80;99.90;;;;;;5167309;27;20482;-86
2022/09/14 11:16:24;;;;;;;5.03;1.50;;;22.10;99.90;;;;;;5159373;27;20050;-88
2022/09/14 11:18:56;;;;;;;12.27;2.55;;;22.20;99.90;;;;;;5159831;27;20642;-87
2022/09/14 11:21:34;;;;;;;8.18;1.80;;;22.30;99.90;;;;;;5139051;27;20059;-88
2022/09/14 11:24:35;;;;;;;7.88;1.60;;;22.40;99.90;;;;;;5117981;27;20049;-89
2022/09/14 11:27:14;;;;;;;7.53;1.70;;;22.70;99.90;;;;;;5135082;27;20042;-89
2022/09/14 11:29:46;;;;;;;8.07;1.67;;;23.00;99.90;;;;;;5157462;27;20034;-88
2022/09/14 11:32:23;;;;;;;5.97;1.38;;;23.00;99.90;;;;;;5155866;27;20153;-87
2022/09/14 11:34:58;;;;;;;6.90;1.60;;;23.10;99.90;;;;;;5158586;27;20075;-88
2022/09/14 11:37:33;;;;;;;6.80;1.38;;;23.40;99.90;;;;;;5172096;27;20035;-74
2022/09/14 11:40:02;;;;;;;8.97;1.67;;;23.80;99.90;;;;;;5135647;27;20043;-74
2022/09/14 11:42:33;;;;;;;6.60;1.73;;;23.90;99.60;;;;;;5117494;27;20130;-74
2022/09/14 11:45:25;;;;;;;8.30;1.83;;;23.90;99.50;;;;;;5157474;27;20035;-75
2022/09/14 11:48:12;;;;;;;6.30;1.60;;;24.00;99.60;;;;;;5154507;27;20061;-74
2022/09/14 11:50:42;;;;;;;4.20;1.40;;;24.00;99.70;;;;;;5143636;27;20038;-76
2022/09/14 11:53:08;;;;;;;5.10;1.45;;;24.10;99.40;;;;;;5144797;27;20408;-75
2022/09/14 11:55:34;;;;;;;7.70;1.40;;;24.10;99.40;;;;;;5174363;27;20046;-75
2022/09/14 11:58:05;;;;;;;5.55;1.67;;;24.00;99.30;;;;;;5146699;27;20042;-75
2022/09/14 12:00:45;;;;;;;6.53;1.70;;;23.90;99.10;;;;;;5156550;27;20113;-73
2022/09/14 12:03:21;;;;;;;6.72;1.95;;;23.80;99.00;;;;;;5156353;27;20125;-74
2022/09/14 12:05:49;;;;;;;9.25;1.88;;;23.80;99.00;;;;;;5145692;27;20047;-73
2022/09/14 12:08:30;;;;;;;9.50;2.08;;;23.60;99.20;;;;;;5139265;27;20042;-73
2022/09/14 12:11:08;;;;;;;6.65;2.00;;;23.50;99.40;;;;;;5134289;27;20043;-73
2022/09/14 12:13:35;;;;;;;7.50;1.85;;;23.30;99.20;;;;;;5117491;27;20421;-73
2022/09/14 12:16:06;;;;;;;10.40;1.90;;;23.10;99.50;;;;;;5155434;27;20082;-74
2022/09/14 12:18:36;;;;;;;13.77;2.65;;;23.10;99.70;;;;;;5162023;27;20042;-74
2022/09/14 12:21:25;;;;;;;6.50;1.77;;;23.00;99.40;;;;;;5152162;27;20070;-73
2022/09/14 12:23:56;;;;;;;7.47;2.20;;;22.90;99.50;;;;;;5150857;27;20524;-74
2022/09/14 12:26:33;;;;;;;7.25;1.70;;;22.80;99.30;;;;;;5143249;27;20046;-73
2022/09/14 12:29:06;;;;;;;5.80;1.65;;;22.80;99.30;;;;;;5163038;27;20453;-73
2022/09/14 12:32:00;;;;;;;5.60;1.45;;;22.60;99.40;;;;;;5134956;27;20123;-74
2022/09/14 12:34:30;;;;;;;6.45;1.50;;;22.60;99.80;;;;;;5149980;27;20045;-73
2022/09/14 12:37:15;;;;;;;7.82;2.10;;;22.70;99.50;;;;;;5132354;27;20084;-73
2022/09/14 12:40:11;;;;;;;4.75;1.63;;;22.70;99.70;;;;;;5155811;27;20042;-73
2022/09/14 12:42:37;;;;;;;5.60;1.77;;;22.80;99.70;;;;;;5155467;27;20106;-69
2022/09/14 12:45:40;;;;;;;5.45;1.48;;;22.80;99.60;;;;;;5172410;27;20034;-69
2022/09/14 12:48:07;;;;;;;4.43;1.52;;;22.70;99.70;;;;;;5176599;27;20168;-71
2022/09/14 12:50:38;;;;;;;5.15;1.60;;;23.10;99.50;;;;;;5154479;27;20062;-71
2022/09/14 12:53:14;;;;;;;8.18;1.85;;;23.30;99.00;;;;;;5139598;27;20053;-71
2022/09/14 12:55:50;;;;;;;6.13;1.65;;;23.30;98.80;;;;;;5176178;27;20516;-71
2022/09/14 12:58:34;;;;;;;6.97;1.70;;;23.30;98.80;;;;;;5174581;27;20049;-71
2022/09/14 13:01:12;;;;;;;6.30;1.70;;;23.30;98.50;;;;;;5144592;27;20093;-71
2022/09/14 13:03:54;;;;;;;8.90;1.63;;;23.40;98.30;;;;;;5136558;27;20130;-70
2022/09/14 13:06:21;;;;;;;8.07;1.70;;;23.20;98.50;;;;;;5155314;27;20454;-70
2022/09/14 13:08:57;;;;;;;7.50;1.60;;;23.00;99.00;;;;;;5154342;27;20102;-71
2022/09/14 13:11:40;;;;;;;3.58;1.30;;;22.90;99.20;;;;;;5153525;27;20039;-70